Time;durP1;ratioP1;P1;durP2;ratioP2;P2;SDS_P1;SDS_P2;PMS_P1;PMS_P2;Temp;Humidity;BMP_temperature;BMP_pressure;BME280_temperature;BME280_humidity;BME280_pressure;Samples;Min_cycle;Max_cycle;Signal;HPM_P1;HPM_P2
2022/06/17 00:00:19;;;;;;;7.57;3.90;;;20.30;58.10;;;;;;5031516;28;20037;-69
2022/06/17 00:02:45;;;;;;;6.68;3.72;;;20.30;58.20;;;;;;5050469;28;20028;-69
2022/06/17 00:05:11;;;;;;;6.85;3.80;;;20.30;58.30;;;;;;5049398;28;20031;-68
2022/06/17 00:07:38;;;;;;;6.47;3.60;;;20.30;58.40;;;;;;5053682;28;20033;-69
2022/06/17 00:10:15;;;;;;;7.97;3.92;;;20.30;58.40;;;;;;5032598;28;20069;-69
2022/06/17 00:12:41;;;;;;;7.75;3.85;;;20.30;58.50;;;;;;5046507;28;20049;-69
2022/06/17 00:15:12;;;;;;;7.05;3.35;;;20.20;58.50;;;;;;5051015;28;20277;-69
2022/06/17 00:17:37;;;;;;;6.60;3.50;;;20.20;58.70;;;;;;5047586;28;20029;-69
2022/06/17 00:20:10;;;;;;;6.90;3.75;;;20.20;58.80;;;;;;5049109;28;20091;-69
2022/06/17 00:22:40;;;;;;;8.20;3.92;;;20.20;58.80;;;;;;5049511;28;20445;-69
2022/06/17 00:25:22;;;;;;;7.40;3.75;;;20.10;58.80;;;;;;5048201;28;20017;-69
2022/06/17 00:27:48;;;;;;;7.50;3.92;;;20.10;58.80;;;;;;5054478;28;20039;-68
2022/06/17 00:30:20;;;;;;;6.82;3.85;;;20.10;58.90;;;;;;5038415;28;20388;-69
2022/06/17 00:32:46;;;;;;;7.20;4.03;;;20.10;59.00;;;;;;5049960;28;20045;-69
2022/06/17 00:35:12;;;;;;;6.25;3.45;;;20.00;59.00;;;;;;5043986;28;20060;-68
2022/06/17 00:37:40;;;;;;;6.80;3.80;;;20.00;59.10;;;;;;5029968;28;20090;-69
2022/06/17 00:40:16;;;;;;;8.15;4.00;;;20.00;59.00;;;;;;5041556;28;20040;-69
2022/06/17 00:42:43;;;;;;;7.05;3.90;;;20.00;59.00;;;;;;5051013;28;20052;-69
2022/06/17 00:45:26;;;;;;;6.80;3.65;;;20.00;59.10;;;;;;5052052;28;20036;-69
2022/06/17 00:48:13;;;;;;;10.15;4.22;;;20.00;59.10;;;;;;5053074;28;20017;-69
2022/06/17 00:51:09;;;;;;;7.07;3.80;;;20.00;59.20;;;;;;5045924;28;20041;-69
2022/06/17 00:53:46;;;;;;;7.88;4.03;;;20.00;59.10;;;;;;5036761;28;20041;-69
2022/06/17 00:56:24;;;;;;;6.53;4.03;;;19.90;59.10;;;;;;5041225;28;20035;-69
2022/06/17 00:59:07;;;;;;;8.13;4.30;;;19.90;59.10;;;;;;5023621;28;20071;-69
2022/06/17 01:01:41;;;;;;;7.38;3.70;;;19.90;59.10;;;;;;5043851;28;20037;-68
2022/06/17 01:04:09;;;;;;;9.38;4.10;;;19.90;59.10;;;;;;5051222;28;20021;-69
2022/06/17 01:06:41;;;;;;;6.63;3.70;;;19.90;59.10;;;;;;5044907;28;20591;-69
2022/06/17 01:12:10;;;;;;;6.72;3.70;;;19.90;59.00;;;;;;5044802;28;20380;-69
2022/06/17 01:14:38;;;;;;;8.82;4.07;;;19.90;59.00;;;;;;5032637;28;20049;-69
2022/06/17 01:17:04;;;;;;;7.15;3.60;;;19.90;59.00;;;;;;5045561;28;20053;-69
2022/06/17 01:19:44;;;;;;;8.07;4.25;;;20.00;59.00;;;;;;5049418;28;20033;-70
2022/06/17 01:22:25;;;;;;;6.15;3.80;;;20.00;58.90;;;;;;5024344;28;20033;-69
2022/06/17 01:24:57;;;;;;;7.40;3.58;;;20.00;58.80;;;;;;5042993;28;20052;-68
2022/06/17 01:27:24;;;;;;;;;;;20.00;58.70;;;;;;5041559;28;20028;-69
2022/06/17 01:29:50;;;;;;;8.30;3.50;;;20.00;58.70;;;;;;5046827;28;20326;-68
2022/06/17 01:32:22;;;;;;;7.32;3.80;;;19.90;58.70;;;;;;5032447;28;20052;-69
2022/06/17 01:34:48;;;;;;;8.32;4.05;;;19.90;58.80;;;;;;5042112;28;20131;-69
2022/06/17 01:37:14;;;;;;;6.55;3.45;;;19.90;58.80;;;;;;5039425;28;20367;-69
2022/06/17 01:39:41;;;;;;;6.57;4.00;;;20.00;58.80;;;;;;5037385;28;20033;-69
2022/06/17 01:42:09;;;;;;;6.47;3.95;;;20.00;58.80;;;;;;5035172;28;20460;-69
2022/06/17 01:44:37;;;;;;;6.35;3.88;;;19.90;58.70;;;;;;5037633;28;20033;-69
2022/06/17 01:47:11;;;;;;;6.43;3.90;;;20.00;58.70;;;;;;5033591;28;20162;-69
2022/06/17 01:49:46;;;;;;;10.07;4.38;;;20.00;58.70;;;;;;5046933;28;20047;-69
2022/06/17 01:52:17;;;;;;;6.93;3.58;;;20.00;58.80;;;;;;5021354;28;20385;-69
2022/06/17 01:54:55;;;;;;;7.50;3.90;;;19.90;58.80;;;;;;5033434;28;20039;-69
2022/06/17 01:57:33;;;;;;;8.20;4.28;;;19.90;58.80;;;;;;5044966;28;20031;-69
2022/06/17 02:00:18;;;;;;;7.47;3.92;;;19.90;58.90;;;;;;5045486;28;20021;-69
2022/06/17 02:02:50;;;;;;;7.85;3.90;;;19.90;59.00;;;;;;5032757;28;20021;-69
2022/06/17 02:05:16;;;;;;;7.30;3.70;;;19.80;59.10;;;;;;5041674;28;20115;-69
2022/06/17 02:07:55;;;;;;;8.18;4.13;;;19.80;59.20;;;;;;5051984;28;20132;-69
2022/06/17 02:10:23;;;;;;;8.02;4.18;;;19.80;59.20;;;;;;5050963;28;20498;-69
2022/06/17 02:12:52;;;;;;;8.13;4.23;;;19.70;59.30;;;;;;5027406;28;20374;-69
2022/06/17 02:15:18;;;;;;;7.20;4.30;;;19.70;59.40;;;;;;5016159;28;20458;-69
2022/06/17 02:18:14;;;;;;;6.63;4.00;;;19.70;59.50;;;;;;5011012;28;20391;-69
2022/06/17 02:20:50;;;;;;;7.13;4.25;;;19.70;59.60;;;;;;4994106;28;20030;-69
2022/06/17 02:23:16;;;;;;;8.25;4.10;;;19.60;59.60;;;;;;4991903;28;20077;-69
2022/06/17 02:25:44;;;;;;;7.95;4.40;;;19.60;59.70;;;;;;4991607;28;20022;-69
2022/06/17 02:28:11;;;;;;;8.32;4.53;;;19.60;59.80;;;;;;4997569;28;20026;-69
2022/06/17 02:30:40;;;;;;;7.80;4.40;;;19.60;59.90;;;;;;4983555;28;20539;-68
2022/06/17 02:33:08;;;;;;;7.60;4.78;;;19.60;59.90;;;;;;4984285;28;20117;-68
2022/06/17 02:35:44;;;;;;;8.43;4.55;;;19.60;60.10;;;;;;4992046;28;20030;-69
2022/06/17 02:38:17;;;;;;;8.77;4.20;;;19.60;60.80;;;;;;4987582;28;20458;-69
2022/06/17 02:40:47;;;;;;;8.32;4.90;;;19.60;60.30;;;;;;4994538;28;20037;-69
2022/06/17 02:43:16;;;;;;;6.63;4.07;;;19.50;60.30;;;;;;4987473;28;20050;-69
2022/06/17 02:45:45;;;;;;;9.68;4.13;;;19.60;60.40;;;;;;4990405;28;20378;-71
2022/06/17 02:48:19;;;;;;;7.05;4.15;;;19.50;60.40;;;;;;4996107;28;20034;-68
2022/06/17 02:50:45;;;;;;;9.88;4.55;;;19.50;60.60;;;;;;4997430;28;20049;-70
2022/06/17 02:53:12;;;;;;;7.93;4.85;;;19.50;60.50;;;;;;4997826;28;20439;-69
2022/06/17 02:55:42;;;;;;;8.65;4.63;;;19.50;60.50;;;;;;5035752;28;20049;-68
2022/06/17 02:58:17;;;;;;;10.27;4.95;;;19.50;60.60;;;;;;5022988;28;20032;-69
2022/06/17 03:00:43;;;;;;;7.85;4.28;;;19.50;60.60;;;;;;5044703;28;20033;-68
2022/06/17 03:03:11;;;;;;;8.50;4.70;;;19.50;60.70;;;;;;5055970;28;20028;-68
2022/06/17 03:05:42;;;;;;;7.88;4.82;;;19.50;60.70;;;;;;5047840;28;20080;-68
2022/06/17 03:08:18;;;;;;;8.15;4.57;;;19.40;60.70;;;;;;5046002;28;20063;-69
2022/06/17 03:10:44;;;;;;;8.98;4.90;;;19.50;60.90;;;;;;5044473;28;20120;-69
2022/06/17 03:13:38;;;;;;;9.85;5.15;;;19.40;60.90;;;;;;5048841;28;20136;-69
2022/06/17 03:16:07;;;;;;;8.25;4.80;;;19.40;60.90;;;;;;5041519;28;20052;-69
2022/06/17 03:18:34;;;;;;;8.43;4.50;;;19.40;61.00;;;;;;5026333;28;20025;-69
2022/06/17 03:21:02;;;;;;;7.88;5.10;;;19.30;61.10;;;;;;5042652;28;20442;-69
2022/06/17 03:23:45;;;;;;;8.35;5.22;;;19.30;61.20;;;;;;5048701;28;20060;-69
2022/06/17 03:26:21;;;;;;;8.23;4.68;;;19.30;61.30;;;;;;5047261;28;20116;-69
2022/06/17 03:28:49;;;;;;;8.30;4.93;;;19.30;61.50;;;;;;5048918;28;20025;-69
2022/06/17 03:31:18;;;;;;;9.65;4.88;;;19.20;61.50;;;;;;5046373;28;20075;-69
2022/06/17 03:33:48;;;;;;;;;;;19.20;61.60;;;;;;5036261;28;20025;-69
2022/06/17 03:36:22;;;;;;;7.50;4.15;;;19.20;61.50;;;;;;5045380;28;19909;-69
2022/06/17 03:38:54;;;;;;;8.65;4.80;;;19.20;61.60;;;;;;5046850;28;20050;-69
2022/06/17 03:41:35;;;;;;;8.85;5.15;;;19.20;61.70;;;;;;5042453;28;20029;-69
2022/06/17 03:44:18;;;;;;;8.70;4.38;;;19.20;61.80;;;;;;5046662;28;20075;-68
2022/06/17 03:46:56;;;;;;;8.50;4.75;;;19.20;62.00;;;;;;5045811;28;20021;-68
2022/06/17 03:49:45;;;;;;;9.00;5.25;;;19.20;62.10;;;;;;5042635;28;20109;-68
2022/06/17 03:52:22;;;;;;;7.68;4.97;;;19.10;62.10;;;;;;5044637;28;20076;-69
2022/06/17 03:54:49;;;;;;;9.40;5.55;;;19.20;62.10;;;;;;5055597;28;20029;-68
2022/06/17 03:57:16;;;;;;;8.20;5.53;;;19.20;62.00;;;;;;5049079;28;20094;-68
2022/06/17 03:59:46;;;;;;;8.63;5.10;;;19.20;62.10;;;;;;5050259;28;20353;-69
2022/06/17 04:02:15;;;;;;;9.35;5.70;;;19.20;62.10;;;;;;5041757;28;20098;-69
2022/06/17 04:04:45;;;;;;;10.60;5.53;;;19.20;62.20;;;;;;5044079;28;20348;-69
2022/06/17 04:07:12;;;;;;;7.95;5.32;;;19.30;62.30;;;;;;5037466;28;20482;-69
2022/06/17 04:09:43;;;;;;;8.63;5.18;;;19.40;62.30;;;;;;5040597;28;20076;-69
2022/06/17 04:12:14;;;;;;;8.43;5.03;;;19.40;62.30;;;;;;5054581;28;20021;-69
2022/06/17 04:15:20;;;;;;;10.30;4.80;;;19.40;62.40;;;;;;5056040;28;20048;-68
2022/06/17 04:17:51;;;;;;;7.82;5.20;;;19.50;62.30;;;;;;5038695;28;20024;-69
2022/06/17 04:20:47;;;;;;;9.50;5.72;;;19.50;62.30;;;;;;5055234;28;20064;-69
2022/06/17 04:23:21;;;;;;;8.98;5.57;;;19.60;62.20;;;;;;5055015;28;20118;-69
2022/06/17 04:26:06;;;;;;;7.60;5.15;;;19.60;62.10;;;;;;5044703;28;20028;-69
2022/06/17 04:28:38;;;;;;;8.90;5.47;;;19.60;62.20;;;;;;5036450;28;20041;-69
2022/06/17 04:31:09;;;;;;;12.73;6.13;;;19.70;62.30;;;;;;5039903;28;20104;-70
2022/06/17 04:33:53;;;;;;;8.75;5.90;;;19.70;62.30;;;;;;5053888;28;20462;-70
2022/06/17 04:36:35;;;;;;;9.50;6.03;;;19.80;62.40;;;;;;5031875;28;20029;-71
2022/06/17 04:39:15;;;;;;;8.80;5.57;;;19.80;62.30;;;;;;5044834;28;20025;-70
2022/06/17 04:41:58;;;;;;;9.75;5.90;;;19.80;62.20;;;;;;5042128;28;20370;-71
2022/06/17 04:44:28;;;;;;;8.82;5.60;;;19.80;62.20;;;;;;5036011;28;20039;-71
2022/06/17 04:47:06;;;;;;;9.30;6.05;;;19.90;62.20;;;;;;5054313;28;20343;-71
2022/06/17 04:49:50;;;;;;;8.15;5.82;;;19.90;62.10;;;;;;5041995;28;20389;-71
2022/06/17 04:52:32;;;;;;;9.57;5.68;;;19.90;62.00;;;;;;5023381;28;20371;-73
2022/06/17 04:55:28;;;;;;;9.40;6.45;;;20.00;62.10;;;;;;5048110;28;20044;-71
2022/06/17 04:58:12;;;;;;;8.95;5.68;;;20.00;61.90;;;;;;5039051;28;20102;-71
2022/06/17 05:00:42;;;;;;;11.40;6.68;;;20.00;61.70;;;;;;5054000;28;20037;-71
2022/06/17 05:03:09;;;;;;;10.77;6.65;;;20.00;61.90;;;;;;5032036;28;20897;-71
2022/06/17 05:05:55;;;;;;;9.77;6.40;;;20.00;61.90;;;;;;5034667;28;20025;-69
2022/06/17 05:08:30;;;;;;;10.93;5.90;;;20.10;62.00;;;;;;5039648;28;20355;-68
2022/06/17 05:11:04;;;;;;;9.00;6.03;;;20.10;62.00;;;;;;5052848;28;20017;-69
2022/06/17 05:13:38;;;;;;;9.88;6.28;;;20.10;62.10;;;;;;5044329;28;20525;-70
2022/06/17 05:16:05;;;;;;;9.98;6.65;;;20.10;61.90;;;;;;5028078;28;20086;-69
2022/06/17 05:18:31;;;;;;;10.57;6.32;;;20.10;61.90;;;;;;5050117;28;20021;-69
2022/06/17 05:21:18;;;;;;;11.43;6.70;;;20.20;61.60;;;;;;5053595;28;20045;-69
2022/06/17 05:23:44;;;;;;;10.07;6.65;;;20.20;61.00;;;;;;5042042;28;20331;-69
2022/06/17 05:26:10;;;;;;;11.23;6.70;;;20.30;60.70;;;;;;5047720;28;20055;-69
2022/06/17 05:28:36;;;;;;;11.30;6.25;;;20.40;60.30;;;;;;5037803;28;20588;-69
2022/06/17 05:31:02;;;;;;;11.25;6.68;;;20.50;59.80;;;;;;5033565;28;20021;-70
2022/06/17 05:33:44;;;;;;;9.70;6.20;;;20.50;59.50;;;;;;5048016;28;20036;-69
2022/06/17 05:36:10;;;;;;;10.10;6.10;;;20.60;59.80;;;;;;5026355;28;20027;-69
2022/06/17 05:38:35;;;;;;;9.60;5.95;;;20.70;58.90;;;;;;5028097;28;20025;-68
2022/06/17 05:41:03;;;;;;;9.32;5.97;;;20.70;58.60;;;;;;5040191;28;20025;-68
2022/06/17 05:43:29;;;;;;;8.70;5.68;;;20.70;58.60;;;;;;5044215;28;20044;-69
2022/06/17 05:45:54;;;;;;;11.95;6.20;;;20.70;58.40;;;;;;5038009;28;20029;-68
2022/06/17 05:48:31;;;;;;;8.88;6.00;;;20.90;58.40;;;;;;5045732;28;20029;-69
2022/06/17 05:51:21;;;;;;;14.73;6.50;;;21.10;58.00;;;;;;5037928;28;20048;-69
2022/06/17 05:54:06;;;;;;;9.15;5.57;;;21.20;57.60;;;;;;5048690;28;20435;-69
2022/06/17 05:56:36;;;;;;;10.52;5.45;;;21.50;57.20;;;;;;5018666;28;20021;-69
2022/06/17 05:59:03;;;;;;;9.70;5.63;;;21.70;56.80;;;;;;5036353;28;20025;-69
2022/06/17 06:01:29;;;;;;;8.52;5.50;;;21.90;56.20;;;;;;5051204;28;20027;-69
2022/06/17 06:03:55;;;;;;;9.60;5.38;;;22.00;55.70;;;;;;5044238;28;20033;-69
2022/06/17 06:06:21;;;;;;;9.05;5.32;;;22.10;55.40;;;;;;5051382;28;20028;-69
2022/06/17 06:08:52;;;;;;;;;;;22.20;55.00;;;;;;5048811;28;20061;-69
2022/06/17 06:11:18;;;;;;;8.18;4.65;;;22.40;54.90;;;;;;5052702;28;19951;-69
2022/06/17 06:13:44;;;;;;;8.57;4.60;;;22.60;54.50;;;;;;5049661;28;20358;-70
2022/06/17 06:16:13;;;;;;;8.52;5.07;;;22.80;54.20;;;;;;5036706;28;20029;-70
2022/06/17 06:18:45;;;;;;;9.30;4.80;;;22.90;53.80;;;;;;5026130;28;20036;-69
2022/06/17 06:21:15;;;;;;;8.02;4.47;;;23.00;53.50;;;;;;5049683;28;20052;-71
2022/06/17 06:23:41;;;;;;;8.45;4.60;;;23.00;53.30;;;;;;5048656;28;20025;-71
2022/06/17 06:26:12;;;;;;;7.30;4.20;;;23.10;53.20;;;;;;5051219;28;20040;-71
2022/06/17 06:28:41;;;;;;;7.07;3.63;;;23.00;53.00;;;;;;5026577;28;20047;-71
2022/06/17 06:31:36;;;;;;;8.57;3.50;;;23.00;53.10;;;;;;5046016;28;20387;-71
2022/06/17 06:34:10;;;;;;;7.80;3.70;;;23.10;53.60;;;;;;5055888;28;20107;-70
2022/06/17 06:36:40;;;;;;;8.75;4.20;;;23.10;53.40;;;;;;5041019;28;20029;-70
2022/06/17 06:39:06;;;;;;;6.38;3.38;;;23.10;53.10;;;;;;5054511;28;20082;-70
2022/06/17 06:41:32;;;;;;;9.48;3.65;;;23.10;52.90;;;;;;5055462;28;20033;-70
2022/06/17 06:43:58;;;;;;;8.15;3.90;;;23.10;52.80;;;;;;5038990;28;20409;-71
2022/06/17 06:46:56;;;;;;;6.47;3.30;;;23.10;52.70;;;;;;5051413;28;20098;-70
2022/06/17 06:49:35;;;;;;;6.32;3.33;;;23.10;52.50;;;;;;5055061;28;20108;-70
2022/06/17 06:52:01;;;;;;;7.75;3.75;;;23.20;52.20;;;;;;5045804;28;20112;-71
2022/06/17 06:54:26;;;;;;;7.55;3.65;;;23.40;51.90;;;;;;5051556;28;20036;-71
2022/06/17 06:56:54;;;;;;;7.53;3.60;;;23.70;51.70;;;;;;5024758;28;20080;-71
2022/06/17 06:59:19;;;;;;;7.40;3.97;;;23.90;51.50;;;;;;5043527;28;20041;-72
2022/06/17 07:01:45;;;;;;;7.97;3.35;;;23.90;51.00;;;;;;5053986;28;20028;-71
2022/06/17 07:04:13;;;;;;;8.15;3.25;;;23.90;50.90;;;;;;5052945;28;20485;-73
2022/06/17 07:06:39;;;;;;;6.45;3.17;;;23.90;50.90;;;;;;5053309;28;20380;-71
2022/06/17 07:09:04;;;;;;;6.57;3.10;;;23.90;50.80;;;;;;5054318;28;20180;-70
2022/06/17 07:11:30;;;;;;;5.93;2.70;;;23.80;50.70;;;;;;5049678;28;20029;-70
2022/06/17 07:13:56;;;;;;;6.63;3.00;;;23.80;50.60;;;;;;5040400;28;20128;-71
2022/06/17 07:16:21;;;;;;;6.82;2.65;;;23.90;50.30;;;;;;5045749;28;20036;-71
2022/06/17 07:18:47;;;;;;;5.70;2.63;;;24.00;50.00;;;;;;5055365;28;20025;-71
2022/06/17 07:21:13;;;;;;;5.88;2.65;;;24.10;50.00;;;;;;5049213;28;20503;-71
2022/06/17 07:23:41;;;;;;;6.38;2.92;;;24.10;50.50;;;;;;5047933;28;20113;-71
2022/06/17 07:26:16;;;;;;;6.05;2.83;;;24.00;49.50;;;;;;5043622;28;20034;-71
2022/06/17 07:28:42;;;;;;;5.38;2.53;;;24.10;49.50;;;;;;5065483;28;20024;-72
2022/06/17 07:31:08;;;;;;;5.43;2.75;;;24.50;49.30;;;;;;5033452;28;20040;-71
2022/06/17 07:33:34;;;;;;;6.93;2.53;;;24.70;48.80;;;;;;5045988;28;20029;-69
2022/06/17 07:36:02;;;;;;;6.70;2.83;;;25.00;48.40;;;;;;5041087;28;20025;-69
2022/06/17 07:41:18;;;;;;;6.82;2.65;;;25.30;48.20;;;;;;5046212;28;20035;-70
2022/06/17 07:43:44;;;;;;;4.72;2.40;;;25.30;48.10;;;;;;5057062;28;20116;-70
2022/06/17 07:46:10;;;;;;;6.95;2.55;;;25.40;48.10;;;;;;5056584;28;20144;-69
2022/06/17 07:48:38;;;;;;;5.65;2.50;;;25.50;47.80;;;;;;5057257;28;20033;-69
2022/06/17 07:51:05;;;;;;;5.22;2.60;;;25.50;47.40;;;;;;5055668;28;20021;-69
2022/06/17 07:53:34;;;;;;;6.10;2.05;;;25.70;47.10;;;;;;5055237;28;20033;-70
2022/06/17 07:56:02;;;;;;;5.38;2.47;;;25.90;46.50;;;;;;5043503;28;20088;-69
2022/06/17 07:58:28;;;;;;;4.82;2.20;;;26.00;45.70;;;;;;5048856;28;20082;-72
2022/06/17 08:00:57;;;;;;;6.28;2.40;;;26.10;45.30;;;;;;5047816;28;20029;-69
2022/06/17 08:03:23;;;;;;;7.25;2.30;;;26.30;45.30;;;;;;5041693;28;20036;-69
2022/06/17 08:05:52;;;;;;;7.65;2.53;;;26.40;45.50;;;;;;5042559;28;20048;-69
2022/06/17 08:08:21;;;;;;;5.20;2.50;;;26.50;44.60;;;;;;5054923;28;20043;-69
2022/06/17 08:10:50;;;;;;;16.38;3.17;;;26.60;44.60;;;;;;5047486;28;20037;-69
2022/06/17 08:13:16;;;;;;;6.15;2.65;;;26.80;44.40;;;;;;5038177;28;20140;-69
2022/06/17 08:15:42;;;;;;;8.90;2.95;;;26.90;44.10;;;;;;5053013;28;20465;-70
2022/06/17 08:18:09;;;;;;;6.47;2.50;;;27.00;44.00;;;;;;5048581;28;20029;-69
2022/06/17 08:20:35;;;;;;;11.55;3.22;;;27.10;43.80;;;;;;5036373;28;20516;-70
2022/06/17 08:23:03;;;;;;;13.02;3.42;;;27.20;44.40;;;;;;5040566;28;20667;-69
2022/06/17 08:25:30;;;;;;;6.75;2.78;;;27.30;43.50;;;;;;5049815;28;20276;-69
2022/06/17 08:27:58;;;;;;;6.20;2.40;;;27.40;43.30;;;;;;5046795;28;20078;-69
2022/06/17 08:30:28;;;;;;;5.40;2.40;;;27.50;43.10;;;;;;5048734;28;20021;-69
2022/06/17 08:32:55;;;;;;;8.97;3.03;;;27.60;43.10;;;;;;5045758;28;20163;-69
2022/06/17 08:35:30;;;;;;;7.45;2.40;;;27.70;42.90;;;;;;5037843;28;20354;-69
2022/06/17 08:38:07;;;;;;;10.20;3.47;;;27.80;42.80;;;;;;5041799;28;20052;-68
2022/06/17 08:40:37;;;;;;;9.10;2.95;;;28.00;42.80;;;;;;5049568;28;20025;-68
2022/06/17 08:43:24;;;;;;;15.13;3.20;;;28.10;42.90;;;;;;5052674;28;20046;-69
2022/06/17 08:46:17;;;;;;;21.95;4.13;;;28.30;42.80;;;;;;5051674;28;20116;-68
2022/06/17 08:49:10;;;;;;;7.57;2.47;;;28.40;42.80;;;;;;5050908;28;20128;-69
2022/06/17 08:51:48;;;;;;;10.88;2.95;;;28.50;42.80;;;;;;5048233;28;20358;-69
2022/06/17 08:54:22;;;;;;;12.90;3.53;;;28.60;42.60;;;;;;5023377;28;20037;-69
2022/06/17 08:57:16;;;;;;;15.35;4.05;;;28.70;42.10;;;;;;5040809;28;20087;-66
2022/06/17 08:59:41;;;;;;;9.85;2.20;;;28.80;41.60;;;;;;5038785;28;20438;-66
2022/06/17 09:02:49;;;;;;;8.32;2.72;;;28.90;41.60;;;;;;5036398;28;20036;-66
2022/06/17 09:05:20;;;;;;;19.98;3.75;;;29.00;41.20;;;;;;5041261;28;20030;-66
2022/06/17 09:07:45;;;;;;;;;;;29.10;41.20;;;;;;5037913;28;20025;-66
2022/06/17 09:10:27;;;;;;;6.13;2.17;;;29.20;41.40;;;;;;5033268;28;20188;-69
2022/06/17 09:12:59;;;;;;;6.80;2.25;;;29.20;41.00;;;;;;5041285;28;20030;-71
2022/06/17 09:15:41;;;;;;;5.05;2.45;;;29.20;40.50;;;;;;5045055;28;20052;-65
2022/06/17 09:18:24;;;;;;;4.60;2.08;;;29.30;40.50;;;;;;5044378;28;20033;-67
2022/06/17 09:20:56;;;;;;;8.02;2.75;;;29.30;40.00;;;;;;5045480;28;20339;-67
2022/06/17 09:23:25;;;;;;;7.82;2.47;;;29.30;40.00;;;;;;5033727;28;20041;-67
2022/06/17 09:25:53;;;;;;;5.72;2.47;;;29.40;39.90;;;;;;5037890;28;20030;-67
2022/06/17 09:28:33;;;;;;;6.93;2.20;;;29.50;40.00;;;;;;5036807;28;20083;-67
2022/06/17 09:31:20;;;;;;;5.05;2.00;;;29.60;39.40;;;;;;5038556;28;20053;-67
2022/06/17 09:33:57;;;;;;;6.50;2.20;;;29.70;39.40;;;;;;5045796;28;20045;-67
2022/06/17 09:36:45;;;;;;;7.25;2.30;;;29.70;39.40;;;;;;5045626;28;20041;-67
2022/06/17 09:39:42;;;;;;;5.72;2.42;;;29.80;39.20;;;;;;5029496;28;20135;-66
2022/06/17 09:42:20;;;;;;;4.95;2.20;;;29.90;39.20;;;;;;5034982;28;20036;-66
2022/06/17 09:44:54;;;;;;;5.10;2.20;;;30.00;38.90;;;;;;5040433;28;20030;-68
2022/06/17 09:47:25;;;;;;;9.75;2.28;;;30.10;38.70;;;;;;5051857;28;20040;-68
2022/06/17 09:50:00;;;;;;;6.63;2.30;;;30.20;38.60;;;;;;5045306;28;20029;-68
2022/06/17 09:52:31;;;;;;;4.15;1.83;;;30.20;38.60;;;;;;5035745;28;20044;-68
2022/06/17 09:55:05;;;;;;;5.53;2.17;;;30.30;38.60;;;;;;5046042;28;20439;-68
2022/06/17 09:57:37;;;;;;;5.63;2.20;;;30.40;38.60;;;;;;5041545;28;20538;-68
2022/06/17 10:00:15;;;;;;;6.45;2.13;;;30.40;38.30;;;;;;5028733;28;20350;-68
2022/06/17 10:02:55;;;;;;;5.75;2.25;;;30.50;38.30;;;;;;5046417;28;20048;-68
2022/06/17 10:05:59;;;;;;;6.60;2.40;;;30.50;38.20;;;;;;5020069;28;20057;-69
2022/06/17 10:08:46;;;;;;;6.40;2.30;;;30.50;38.20;;;;;;5040067;28;20041;-68
2022/06/17 10:11:30;;;;;;;5.18;2.33;;;30.50;37.70;;;;;;5039342;28;20037;-68
2022/06/17 10:14:24;;;;;;;6.22;2.10;;;30.50;37.70;;;;;;5038243;28;20042;-68
2022/06/17 10:20:11;;;;;;;6.55;2.10;;;30.50;37.20;;;;;;5047654;28;20029;-68
2022/06/17 10:23:06;;;;;;;6.45;1.92;;;30.50;37.30;;;;;;5042662;28;20454;-68
2022/06/17 10:26:00;;;;;;;6.00;2.00;;;30.50;37.30;;;;;;5045466;28;20455;-68
2022/06/17 10:28:56;;;;;;;5.03;2.38;;;30.60;37.20;;;;;;5042572;28;20082;-68
2022/06/17 10:31:27;;;;;;;4.28;1.90;;;30.60;37.60;;;;;;5043552;28;20052;-68
2022/06/17 10:33:57;;;;;;;6.93;2.20;;;30.60;37.30;;;;;;5023789;28;20490;-68
2022/06/17 10:36:23;;;;;;;4.28;1.70;;;30.80;37.20;;;;;;5045100;28;20044;-68
2022/06/17 10:38:49;;;;;;;5.20;2.10;;;30.80;36.80;;;;;;5049547;28;20029;-68
2022/06/17 10:41:17;;;;;;;4.75;2.47;;;30.80;36.60;;;;;;5040626;28;20035;-68
2022/06/17 10:43:51;;;;;;;8.63;2.17;;;30.90;36.60;;;;;;5048533;28;20458;-68
2022/06/17 10:46:28;;;;;;;6.13;2.42;;;30.90;36.50;;;;;;5047694;28;20048;-68
2022/06/17 10:49:28;;;;;;;5.10;2.42;;;30.90;36.60;;;;;;5038879;28;20036;-67
2022/06/17 10:51:56;;;;;;;5.03;1.90;;;31.00;36.60;;;;;;5029673;28;20036;-68
2022/06/17 10:54:34;;;;;;;5.10;2.15;;;31.00;37.30;;;;;;5032691;28;20033;-68
2022/06/17 10:57:09;;;;;;;6.35;1.80;;;31.10;36.60;;;;;;5034788;28;20124;-68
2022/06/17 10:59:41;;;;;;;5.57;2.13;;;31.20;36.50;;;;;;5033094;28;20030;-69
2022/06/17 11:02:24;;;;;;;6.47;2.60;;;31.30;36.10;;;;;;5033922;28;20038;-67
2022/06/17 11:04:58;;;;;;;5.82;2.20;;;31.30;35.80;;;;;;5037313;28;20098;-69
2022/06/17 11:07:39;;;;;;;7.28;2.33;;;31.30;35.80;;;;;;5037627;28;20430;-68
2022/06/17 11:10:14;;;;;;;5.47;2.00;;;31.20;35.30;;;;;;5054632;28;20057;-69
2022/06/17 11:12:54;;;;;;;5.20;2.03;;;31.20;35.50;;;;;;5045578;28;20041;-68
2022/06/17 11:15:23;;;;;;;6.00;2.00;;;31.30;35.40;;;;;;5045409;28;20136;-68
2022/06/17 11:17:51;;;;;;;6.35;2.08;;;31.20;35.30;;;;;;5042258;28;20021;-66
2022/06/17 11:20:24;;;;;;;5.78;2.10;;;31.30;35.30;;;;;;5049353;28;20469;-67
2022/06/17 11:22:51;;;;;;;5.63;2.30;;;31.30;35.30;;;;;;5037216;28;20030;-67
2022/06/17 11:25:27;;;;;;;4.47;1.92;;;31.30;35.10;;;;;;5038913;28;20033;-67
2022/06/17 11:28:10;;;;;;;4.85;2.10;;;31.30;35.90;;;;;;5036588;28;20091;-67
2022/06/17 11:30:37;;;;;;;6.70;1.98;;;31.30;35.10;;;;;;5039696;28;20136;-67
2022/06/17 11:33:24;;;;;;;6.07;2.22;;;31.30;35.30;;;;;;5037022;28;20026;-71
2022/06/17 11:36:06;;;;;;;5.18;2.00;;;31.30;35.10;;;;;;5054971;28;20044;-72
2022/06/17 11:38:34;;;;;;;6.63;2.20;;;31.30;35.10;;;;;;5057149;28;20454;-71
2022/06/17 11:41:01;;;;;;;4.90;2.30;;;31.30;35.00;;;;;;5040748;28;20100;-69
2022/06/17 11:43:41;;;;;;;4.93;2.03;;;31.20;34.70;;;;;;5038612;28;20029;-71
2022/06/17 11:46:13;;;;;;;7.28;2.10;;;31.20;34.70;;;;;;5025951;28;20103;-68
2022/06/17 11:48:44;;;;;;;6.65;2.13;;;31.10;34.40;;;;;;5043384;28;20025;-67
2022/06/17 11:51:16;;;;;;;3.45;1.55;;;31.00;34.50;;;;;;5047985;28;20040;-68
2022/06/17 11:53:56;;;;;;;3.47;1.65;;;31.00;34.50;;;;;;5047292;28;20044;-68
2022/06/17 11:56:34;;;;;;;4.90;2.00;;;31.00;34.50;;;;;;5043012;28;20040;-68
2022/06/17 11:59:14;;;;;;;5.80;2.00;;;30.90;34.60;;;;;;5052964;28;20028;-68
2022/06/17 12:01:46;;;;;;;4.60;1.70;;;30.90;34.20;;;;;;5048635;28;20079;-68
2022/06/17 12:04:32;;;;;;;4.57;2.25;;;30.80;34.60;;;;;;5037776;28;20426;-68
2022/06/17 12:06:58;;;;;;;4.45;2.40;;;30.90;34.70;;;;;;5052794;28;20021;-68
2022/06/17 12:09:38;;;;;;;7.95;2.55;;;30.90;34.70;;;;;;5054393;28;20059;-68
2022/06/17 12:12:13;;;;;;;6.18;2.00;;;30.80;34.50;;;;;;5048469;28;20033;-68
2022/06/17 12:14:51;;;;;;;5.20;2.30;;;30.80;34.60;;;;;;5036806;28;20065;-67
2022/06/17 12:17:20;;;;;;;5.43;2.22;;;30.70;34.50;;;;;;5043577;28;20033;-67
2022/06/17 12:19:46;;;;;;;4.53;2.30;;;30.70;34.60;;;;;;5051166;28;20123;-68
2022/06/17 12:22:35;;;;;;;5.72;2.00;;;30.60;34.60;;;;;;5054078;28;20108;-68
2022/06/17 12:25:30;;;;;;;5.60;2.15;;;30.50;34.60;;;;;;5034423;28;20032;-68
2022/06/17 12:28:05;;;;;;;4.03;1.83;;;30.50;35.00;;;;;;5052332;28;20473;-68
2022/06/17 12:31:15;;;;;;;5.35;1.98;;;30.40;35.00;;;;;;5042879;28;20021;-68
2022/06/17 12:33:45;;;;;;;6.30;2.45;;;30.40;35.30;;;;;;5055591;28;20037;-67
2022/06/17 12:36:26;;;;;;;4.80;1.95;;;30.30;35.20;;;;;;5044417;28;20461;-71
2022/06/17 12:39:20;;;;;;;5.97;2.13;;;30.20;35.60;;;;;;5048448;28;20021;-66
2022/06/17 12:41:50;;;;;;;5.70;2.70;;;30.10;35.30;;;;;;5046923;28;20025;-68
2022/06/17 12:44:44;;;;;;;5.97;2.58;;;30.10;35.20;;;;;;5049754;28;20454;-70
2022/06/17 12:47:29;;;;;;;5.18;2.10;;;30.00;35.30;;;;;;5049868;28;20029;-70
2022/06/17 12:53:14;;;;;;;5.25;2.35;;;29.90;35.50;;;;;;5051678;28;20033;-67
2022/06/17 12:55:47;;;;;;;5.25;2.10;;;29.90;35.50;;;;;;5044782;28;20044;-67
2022/06/17 12:58:15;;;;;;;5.20;2.30;;;29.80;36.20;;;;;;5053559;28;20107;-68
2022/06/17 13:00:51;;;;;;;6.03;2.42;;;29.70;35.80;;;;;;5040107;28;20031;-67
2022/06/17 13:03:44;;;;;;;5.95;2.67;;;29.70;35.90;;;;;;5048748;28;20033;-67
2022/06/17 13:06:39;;;;;;;6.03;2.33;;;29.70;35.70;;;;;;5051489;28;20115;-67
2022/06/17 13:09:17;;;;;;;5.43;2.28;;;29.60;35.50;;;;;;5049625;28;20029;-67
2022/06/17 13:12:14;;;;;;;6.53;3.03;;;29.60;36.00;;;;;;5042450;28;20128;-68
2022/06/17 13:15:01;;;;;;;7.07;2.30;;;29.60;36.10;;;;;;5038396;28;20099;-68
2022/06/17 13:17:55;;;;;;;5.47;2.30;;;29.60;36.20;;;;;;5037044;28;20034;-67
2022/06/17 13:20:40;;;;;;;5.25;2.45;;;29.60;36.20;;;;;;5043589;28;20033;-68
2022/06/17 13:23:35;;;;;;;4.78;2.10;;;29.60;36.00;;;;;;5046259;28;20057;-67
2022/06/17 13:26:11;;;;;;;7.00;2.50;;;29.60;35.90;;;;;;5044279;28;20032;-67
2022/06/17 13:28:51;;;;;;;8.05;2.80;;;29.60;35.90;;;;;;5037264;28;20022;-67
2022/06/17 13:31:36;;;;;;;7.95;3.38;;;29.50;36.00;;;;;;5041149;28;20037;-67
2022/06/17 13:34:16;;;;;;;6.40;3.50;;;29.50;36.30;;;;;;5051014;28;20029;-68
2022/06/17 13:37:05;;;;;;;8.15;3.35;;;29.50;36.60;;;;;;5053771;28;20056;-67